sensor_id;sensor_type;location;lat;lon;timestamp;P1;durP1;ratioP1;P2;durP2;ratioP2
23044;SDS011;11690;51.716;23.066;2023-02-12T00:01:24;4.77;;;1.70;;
23044;SDS011;11690;51.716;23.066;2023-02-12T00:03:54;3.43;;;1.70;;
23044;SDS011;11690;51.716;23.066;2023-02-12T00:06:22;3.93;;;1.80;;
23044;SDS011;11690;51.716;23.066;2023-02-12T00:08:50;4.03;;;1.63;;
23044;SDS011;11690;51.716;23.066;2023-02-12T00:11:22;4.37;;;1.60;;
23044;SDS011;11690;51.716;23.066;2023-02-12T00:13:51;3.43;;;1.40;;
23044;SDS011;11690;51.716;23.066;2023-02-12T00:16:20;3.73;;;1.60;;
23044;SDS011;11690;51.716;23.066;2023-02-12T00:18:52;4.87;;;1.67;;
23044;SDS011;11690;51.716;23.066;2023-02-12T00:21:21;3.90;;;1.50;;
23044;SDS011;11690;51.716;23.066;2023-02-12T00:23:49;2.50;;;1.40;;
23044;SDS011;11690;51.716;23.066;2023-02-12T00:26:17;2.50;;;1.23;;
23044;SDS011;11690;51.716;23.066;2023-02-12T00:28:48;3.03;;;1.33;;
23044;SDS011;11690;51.716;23.066;2023-02-12T00:31:18;2.40;;;1.13;;
23044;SDS011;11690;51.716;23.066;2023-02-12T00:33:47;2.83;;;1.03;;
23044;SDS011;11690;51.716;23.066;2023-02-12T00:36:16;1.57;;;1.27;;
23044;SDS011;11690;51.716;23.066;2023-02-12T00:38:45;1.33;;;1.03;;
23044;SDS011;11690;51.716;23.066;2023-02-12T00:41:14;1.23;;;1.00;;
23044;SDS011;11690;51.716;23.066;2023-02-12T00:43:41;1.13;;;0.70;;
23044;SDS011;11690;51.716;23.066;2023-02-12T00:46:08;2.80;;;1.00;;
23044;SDS011;11690;51.716;23.066;2023-02-12T00:48:35;2.93;;;0.80;;
23044;SDS011;11690;51.716;23.066;2023-02-12T00:51:03;1.53;;;1.00;;
23044;SDS011;11690;51.716;23.066;2023-02-12T00:53:31;1.80;;;0.80;;
23044;SDS011;11690;51.716;23.066;2023-02-12T00:55:58;1.20;;;1.00;;
23044;SDS011;11690;51.716;23.066;2023-02-12T00:58:26;2.43;;;0.87;;
23044;SDS011;11690;51.716;23.066;2023-02-12T01:00:53;1.73;;;1.07;;
23044;SDS011;11690;51.716;23.066;2023-02-12T01:03:22;1.97;;;0.97;;
23044;SDS011;11690;51.716;23.066;2023-02-12T01:05:51;0.70;;;0.70;;
23044;SDS011;11690;51.716;23.066;2023-02-12T01:08:20;1.67;;;1.07;;
23044;SDS011;11690;51.716;23.066;2023-02-12T01:10:53;1.57;;;1.10;;
23044;SDS011;11690;51.716;23.066;2023-02-12T01:13:24;1.20;;;0.90;;
23044;SDS011;11690;51.716;23.066;2023-02-12T01:18:49;1.10;;;1.00;;
23044;SDS011;11690;51.716;23.066;2023-02-12T01:21:23;9.00;;;1.20;;
23044;SDS011;11690;51.716;23.066;2023-02-12T01:23:53;1.90;;;1.17;;
23044;SDS011;11690;51.716;23.066;2023-02-12T01:26:21;3.60;;;1.60;;
23044;SDS011;11690;51.716;23.066;2023-02-12T01:28:53;3.00;;;1.40;;
23044;SDS011;11690;51.716;23.066;2023-02-12T01:31:23;3.90;;;1.50;;
23044;SDS011;11690;51.716;23.066;2023-02-12T01:33:52;2.07;;;1.40;;
23044;SDS011;11690;51.716;23.066;2023-02-12T01:36:21;1.70;;;0.97;;
23044;SDS011;11690;51.716;23.066;2023-02-12T01:38:49;1.60;;;1.20;;
23044;SDS011;11690;51.716;23.066;2023-02-12T01:41:18;1.37;;;1.10;;
23044;SDS011;11690;51.716;23.066;2023-02-12T01:44:04;0.90;;;0.90;;
23044;SDS011;11690;51.716;23.066;2023-02-12T01:46:32;0.93;;;0.90;;
23044;SDS011;11690;51.716;23.066;2023-02-12T01:48:59;3.07;;;1.20;;
23044;SDS011;11690;51.716;23.066;2023-02-12T01:51:28;1.20;;;1.10;;
23044;SDS011;11690;51.716;23.066;2023-02-12T01:53:55;2.30;;;1.10;;
23044;SDS011;11690;51.716;23.066;2023-02-12T01:56:26;2.10;;;1.00;;
23044;SDS011;11690;51.716;23.066;2023-02-12T01:58:54;2.00;;;1.20;;
23044;SDS011;11690;51.716;23.066;2023-02-12T02:01:25;1.87;;;1.10;;
23044;SDS011;11690;51.716;23.066;2023-02-12T02:03:55;1.30;;;1.17;;
23044;SDS011;11690;51.716;23.066;2023-02-12T02:06:27;1.80;;;1.33;;
23044;SDS011;11690;51.716;23.066;2023-02-12T02:08:58;2.73;;;1.57;;
23044;SDS011;11690;51.716;23.066;2023-02-12T02:11:27;1.20;;;1.10;;
23044;SDS011;11690;51.716;23.066;2023-02-12T02:14:13;2.77;;;1.30;;
23044;SDS011;11690;51.716;23.066;2023-02-12T02:27:32;2.33;;;1.57;;
23044;SDS011;11690;51.716;23.066;2023-02-12T02:43:47;1.60;;;1.40;;
23044;SDS011;11690;51.716;23.066;2023-02-12T02:46:50;1.57;;;1.20;;
23044;SDS011;11690;51.716;23.066;2023-02-12T02:49:16;2.37;;;1.47;;
23044;SDS011;11690;51.716;23.066;2023-02-12T02:51:50;2.40;;;1.50;;
23044;SDS011;11690;51.716;23.066;2023-02-12T02:54:22;2.33;;;1.33;;
23044;SDS011;11690;51.716;23.066;2023-02-12T02:56:54;1.90;;;1.40;;
23044;SDS011;11690;51.716;23.066;2023-02-12T02:59:27;3.77;;;1.50;;
23044;SDS011;11690;51.716;23.066;2023-02-12T03:02:02;1.57;;;1.33;;
23044;SDS011;11690;51.716;23.066;2023-02-12T03:04:35;3.93;;;1.77;;
23044;SDS011;11690;51.716;23.066;2023-02-12T03:10:01;1.80;;;1.13;;
23044;SDS011;11690;51.716;23.066;2023-02-12T03:12:37;2.07;;;1.50;;
23044;SDS011;11690;51.716;23.066;2023-02-12T03:15:09;2.83;;;1.33;;
23044;SDS011;11690;51.716;23.066;2023-02-12T03:17:41;1.90;;;1.20;;
23044;SDS011;11690;51.716;23.066;2023-02-12T03:20:30;2.00;;;1.30;;
23044;SDS011;11690;51.716;23.066;2023-02-12T03:23:08;3.93;;;1.63;;
23044;SDS011;11690;51.716;23.066;2023-02-12T03:26:03;2.43;;;1.30;;
23044;SDS011;11690;51.716;23.066;2023-02-12T03:28:35;2.97;;;1.33;;
23044;SDS011;11690;51.716;23.066;2023-02-12T03:31:09;3.17;;;1.60;;
23044;SDS011;11690;51.716;23.066;2023-02-12T03:36:44;2.77;;;1.50;;
23044;SDS011;11690;51.716;23.066;2023-02-12T03:39:22;4.80;;;1.50;;
23044;SDS011;11690;51.716;23.066;2023-02-12T03:42:04;3.27;;;1.30;;
23044;SDS011;11690;51.716;23.066;2023-02-12T03:47:49;3.63;;;1.57;;
23044;SDS011;11690;51.716;23.066;2023-02-12T03:49:58;2.93;;;1.77;;
23044;SDS011;11690;51.716;23.066;2023-02-12T03:52:29;5.00;;;1.73;;
23044;SDS011;11690;51.716;23.066;2023-02-12T03:54:57;3.17;;;1.50;;
23044;SDS011;11690;51.716;23.066;2023-02-12T03:57:25;3.37;;;1.37;;
23044;SDS011;11690;51.716;23.066;2023-02-12T03:59:57;2.47;;;1.53;;
23044;SDS011;11690;51.716;23.066;2023-02-12T04:02:25;2.70;;;1.30;;
23044;SDS011;11690;51.716;23.066;2023-02-12T04:04:52;3.10;;;1.43;;
23044;SDS011;11690;51.716;23.066;2023-02-12T04:07:19;2.63;;;1.60;;
23044;SDS011;11690;51.716;23.066;2023-02-12T04:09:47;2.23;;;1.33;;
23044;SDS011;11690;51.716;23.066;2023-02-12T04:14:54;3.47;;;1.60;;
23044;SDS011;11690;51.716;23.066;2023-02-12T04:31:05;2.40;;;1.73;;
23044;SDS011;11690;51.716;23.066;2023-02-12T04:33:41;6.70;;;1.67;;
23044;SDS011;11690;51.716;23.066;2023-02-12T04:36:16;3.47;;;1.73;;
23044;SDS011;11690;51.716;23.066;2023-02-12T04:38:52;4.30;;;2.40;;
23044;SDS011;11690;51.716;23.066;2023-02-12T04:41:21;5.70;;;1.87;;
23044;SDS011;11690;51.716;23.066;2023-02-12T04:43:48;3.23;;;1.80;;
23044;SDS011;11690;51.716;23.066;2023-02-12T04:46:15;2.13;;;1.37;;
23044;SDS011;11690;51.716;23.066;2023-02-12T04:48:51;1.97;;;1.37;;
23044;SDS011;11690;51.716;23.066;2023-02-12T04:51:27;3.27;;;1.50;;
23044;SDS011;11690;51.716;23.066;2023-02-12T04:53:54;6.30;;;1.70;;
23044;SDS011;11690;51.716;23.066;2023-02-12T04:56:21;2.63;;;1.80;;
23044;SDS011;11690;51.716;23.066;2023-02-12T04:58:48;3.80;;;1.90;;
23044;SDS011;11690;51.716;23.066;2023-02-12T05:01:16;2.70;;;1.43;;
23044;SDS011;11690;51.716;23.066;2023-02-12T05:03:43;4.70;;;1.67;;
23044;SDS011;11690;51.716;23.066;2023-02-12T05:06:10;3.87;;;1.93;;
23044;SDS011;11690;51.716;23.066;2023-02-12T05:08:37;3.37;;;1.60;;
23044;SDS011;11690;51.716;23.066;2023-02-12T05:11:05;4.53;;;1.60;;
23044;SDS011;11690;51.716;23.066;2023-02-12T05:13:34;4.37;;;1.60;;
23044;SDS011;11690;51.716;23.066;2023-02-12T05:16:05;3.53;;;1.60;;
23044;SDS011;11690;51.716;23.066;2023-02-12T05:18:33;6.53;;;1.83;;
23044;SDS011;11690;51.716;23.066;2023-02-12T05:21:02;3.10;;;1.50;;
23044;SDS011;11690;51.716;23.066;2023-02-12T05:23:31;2.30;;;1.50;;
23044;SDS011;11690;51.716;23.066;2023-02-12T05:26:01;4.13;;;1.60;;
23044;SDS011;11690;51.716;23.066;2023-02-12T05:28:30;2.80;;;1.43;;
23044;SDS011;11690;51.716;23.066;2023-02-12T05:31:01;2.47;;;1.67;;
23044;SDS011;11690;51.716;23.066;2023-02-12T05:33:29;4.20;;;1.83;;
23044;SDS011;11690;51.716;23.066;2023-02-12T05:36:07;4.83;;;1.40;;
23044;SDS011;11690;51.716;23.066;2023-02-12T05:38:36;2.30;;;1.70;;
23044;SDS011;11690;51.716;23.066;2023-02-12T05:41:05;3.97;;;1.37;;
23044;SDS011;11690;51.716;23.066;2023-02-12T05:43:34;3.53;;;1.70;;
23044;SDS011;11690;51.716;23.066;2023-02-12T05:46:01;4.77;;;1.93;;
23044;SDS011;11690;51.716;23.066;2023-02-12T05:48:30;4.43;;;1.40;;
23044;SDS011;11690;51.716;23.066;2023-02-12T05:51:17;6.10;;;1.90;;
23044;SDS011;11690;51.716;23.066;2023-02-12T05:53:48;6.33;;;1.80;;
23044;SDS011;11690;51.716;23.066;2023-02-12T05:56:18;6.20;;;1.73;;
23044;SDS011;11690;51.716;23.066;2023-02-12T05:58:50;9.00;;;3.90;;
23044;SDS011;11690;51.716;23.066;2023-02-12T06:01:20;226.70;;;67.53;;
23044;SDS011;11690;51.716;23.066;2023-02-12T06:03:53;246.17;;;73.27;;
23044;SDS011;11690;51.716;23.066;2023-02-12T06:06:20;61.33;;;24.03;;
23044;SDS011;11690;51.716;23.066;2023-02-12T06:08:48;236.37;;;99.60;;
23044;SDS011;11690;51.716;23.066;2023-02-12T06:11:15;207.53;;;85.47;;
23044;SDS011;11690;51.716;23.066;2023-02-12T06:13:43;12.90;;;6.97;;
23044;SDS011;11690;51.716;23.066;2023-02-12T06:16:24;17.00;;;8.70;;
23044;SDS011;11690;51.716;23.066;2023-02-12T06:18:54;5.27;;;3.00;;
23044;SDS011;11690;51.716;23.066;2023-02-12T06:21:21;4.07;;;2.97;;
23044;SDS011;11690;51.716;23.066;2023-02-12T06:23:50;4.63;;;2.60;;
23044;SDS011;11690;51.716;23.066;2023-02-12T06:26:17;4.87;;;3.00;;
23044;SDS011;11690;51.716;23.066;2023-02-12T06:28:45;12.13;;;6.07;;
23044;SDS011;11690;51.716;23.066;2023-02-12T06:33:45;6.03;;;2.40;;
23044;SDS011;11690;51.716;23.066;2023-02-12T06:36:12;5.13;;;2.10;;
23044;SDS011;11690;51.716;23.066;2023-02-12T06:38:39;8.03;;;2.37;;
23044;SDS011;11690;51.716;23.066;2023-02-12T06:41:06;4.10;;;2.23;;
23044;SDS011;11690;51.716;23.066;2023-02-12T06:43:34;5.10;;;2.47;;
23044;SDS011;11690;51.716;23.066;2023-02-12T06:46:02;5.57;;;2.70;;
23044;SDS011;11690;51.716;23.066;2023-02-12T06:48:30;5.43;;;2.57;;
23044;SDS011;11690;51.716;23.066;2023-02-12T06:53:33;4.53;;;2.30;;
23044;SDS011;11690;51.716;23.066;2023-02-12T06:56:01;5.70;;;2.73;;
23044;SDS011;11690;51.716;23.066;2023-02-12T06:58:30;6.77;;;2.63;;
23044;SDS011;11690;51.716;23.066;2023-02-12T07:01:06;5.17;;;2.30;;
23044;SDS011;11690;51.716;23.066;2023-02-12T07:04:02;4.97;;;2.43;;
23044;SDS011;11690;51.716;23.066;2023-02-12T07:06:30;5.13;;;2.40;;
23044;SDS011;11690;51.716;23.066;2023-02-12T07:08:58;5.37;;;2.47;;
23044;SDS011;11690;51.716;23.066;2023-02-12T07:11:26;5.30;;;2.53;;
23044;SDS011;11690;51.716;23.066;2023-02-12T07:13:54;9.60;;;2.67;;
23044;SDS011;11690;51.716;23.066;2023-02-12T07:16:22;5.83;;;2.33;;
23044;SDS011;11690;51.716;23.066;2023-02-12T07:18:49;3.83;;;2.23;;
23044;SDS011;11690;51.716;23.066;2023-02-12T07:21:17;4.20;;;2.30;;
23044;SDS011;11690;51.716;23.066;2023-02-12T07:23:49;4.37;;;1.97;;
23044;SDS011;11690;51.716;23.066;2023-02-12T07:26:18;4.10;;;2.00;;
23044;SDS011;11690;51.716;23.066;2023-02-12T07:28:46;2.77;;;2.07;;
23044;SDS011;11690;51.716;23.066;2023-02-12T07:31:18;12.40;;;5.37;;
23044;SDS011;11690;51.716;23.066;2023-02-12T07:33:47;2.90;;;1.80;;
23044;SDS011;11690;51.716;23.066;2023-02-12T07:36:16;10.13;;;4.93;;
23044;SDS011;11690;51.716;23.066;2023-02-12T07:38:46;10.40;;;2.93;;
23044;SDS011;11690;51.716;23.066;2023-02-12T07:41:14;7.80;;;2.00;;
23044;SDS011;11690;51.716;23.066;2023-02-12T07:43:47;4.30;;;2.67;;
23044;SDS011;11690;51.716;23.066;2023-02-12T07:46:18;8.37;;;3.50;;
23044;SDS011;11690;51.716;23.066;2023-02-12T07:48:47;3.30;;;2.00;;
23044;SDS011;11690;51.716;23.066;2023-02-12T07:51:15;9.50;;;2.93;;
23044;SDS011;11690;51.716;23.066;2023-02-12T07:53:45;7.60;;;2.77;;
23044;SDS011;11690;51.716;23.066;2023-02-12T07:56:16;6.57;;;3.47;;
23044;SDS011;11690;51.716;23.066;2023-02-12T07:58:45;5.40;;;2.57;;
23044;SDS011;11690;51.716;23.066;2023-02-12T08:01:18;15.20;;;6.43;;
23044;SDS011;11690;51.716;23.066;2023-02-12T08:03:47;15.43;;;5.93;;
23044;SDS011;11690;51.716;23.066;2023-02-12T08:06:20;14.93;;;6.53;;
23044;SDS011;11690;51.716;23.066;2023-02-12T08:08:49;13.77;;;5.83;;
23044;SDS011;11690;51.716;23.066;2023-02-12T08:11:17;5.73;;;2.83;;
23044;SDS011;11690;51.716;23.066;2023-02-12T08:13:45;6.00;;;2.57;;
23044;SDS011;11690;51.716;23.066;2023-02-12T08:16:13;5.87;;;2.37;;
23044;SDS011;11690;51.716;23.066;2023-02-12T08:18:43;5.20;;;2.30;;
23044;SDS011;11690;51.716;23.066;2023-02-12T08:21:14;3.77;;;2.30;;
23044;SDS011;11690;51.716;23.066;2023-02-12T08:23:44;4.93;;;2.40;;
23044;SDS011;11690;51.716;23.066;2023-02-12T08:26:12;4.03;;;1.83;;
23044;SDS011;11690;51.716;23.066;2023-02-12T08:28:42;3.77;;;2.20;;
23044;SDS011;11690;51.716;23.066;2023-02-12T08:31:14;4.40;;;1.70;;
23044;SDS011;11690;51.716;23.066;2023-02-12T08:33:43;4.97;;;1.83;;
23044;SDS011;11690;51.716;23.066;2023-02-12T08:36:15;3.00;;;1.70;;
23044;SDS011;11690;51.716;23.066;2023-02-12T08:38:44;6.10;;;2.50;;
23044;SDS011;11690;51.716;23.066;2023-02-12T08:41:13;7.73;;;2.63;;
23044;SDS011;11690;51.716;23.066;2023-02-12T08:43:56;4.53;;;2.43;;
23044;SDS011;11690;51.716;23.066;2023-02-12T08:46:26;4.83;;;1.87;;
23044;SDS011;11690;51.716;23.066;2023-02-12T08:48:58;6.70;;;2.63;;
23044;SDS011;11690;51.716;23.066;2023-02-12T08:51:27;3.80;;;2.30;;
23044;SDS011;11690;51.716;23.066;2023-02-12T08:53:58;4.37;;;2.40;;
23044;SDS011;11690;51.716;23.066;2023-02-12T08:56:27;5.63;;;2.10;;
23044;SDS011;11690;51.716;23.066;2023-02-12T08:58:56;3.23;;;2.10;;
23044;SDS011;11690;51.716;23.066;2023-02-12T09:01:24;5.97;;;2.50;;
23044;SDS011;11690;51.716;23.066;2023-02-12T09:03:53;5.60;;;2.40;;
23044;SDS011;11690;51.716;23.066;2023-02-12T09:06:20;6.10;;;2.10;;
23044;SDS011;11690;51.716;23.066;2023-02-12T09:08:49;4.83;;;1.97;;
23044;SDS011;11690;51.716;23.066;2023-02-12T09:11:18;4.43;;;2.20;;
23044;SDS011;11690;51.716;23.066;2023-02-12T09:13:50;3.83;;;1.83;;
23044;SDS011;11690;51.716;23.066;2023-02-12T09:16:17;4.63;;;2.20;;
23044;SDS011;11690;51.716;23.066;2023-02-12T09:18:45;4.80;;;2.20;;
23044;SDS011;11690;51.716;23.066;2023-02-12T09:21:13;7.87;;;2.83;;
23044;SDS011;11690;51.716;23.066;2023-02-12T09:23:42;5.87;;;3.63;;
23044;SDS011;11690;51.716;23.066;2023-02-12T09:26:11;3.60;;;2.23;;
23044;SDS011;11690;51.716;23.066;2023-02-12T09:28:41;4.80;;;2.50;;
23044;SDS011;11690;51.716;23.066;2023-02-12T09:31:09;4.27;;;2.70;;
23044;SDS011;11690;51.716;23.066;2023-02-12T09:33:41;6.30;;;2.33;;
23044;SDS011;11690;51.716;23.066;2023-02-12T09:36:15;4.37;;;2.40;;
23044;SDS011;11690;51.716;23.066;2023-02-12T09:38:43;2.90;;;2.20;;
23044;SDS011;11690;51.716;23.066;2023-02-12T09:46:48;6.20;;;2.43;;
23044;SDS011;11690;51.716;23.066;2023-02-12T09:51:46;4.30;;;2.10;;
23044;SDS011;11690;51.716;23.066;2023-02-12T09:54:18;5.23;;;2.30;;
23044;SDS011;11690;51.716;23.066;2023-02-12T09:56:54;7.30;;;2.30;;
23044;SDS011;11690;51.716;23.066;2023-02-12T09:59:33;7.40;;;2.40;;
23044;SDS011;11690;51.716;23.066;2023-02-12T10:02:37;3.83;;;2.33;;
23044;SDS011;11690;51.716;23.066;2023-02-12T10:04:56;4.97;;;2.70;;
23044;SDS011;11690;51.716;23.066;2023-02-12T10:08:12;5.77;;;2.43;;
23044;SDS011;11690;51.716;23.066;2023-02-12T10:10:46;4.57;;;2.50;;
23044;SDS011;11690;51.716;23.066;2023-02-12T10:15:52;4.70;;;2.50;;
23044;SDS011;11690;51.716;23.066;2023-02-12T10:18:41;5.57;;;2.33;;
23044;SDS011;11690;51.716;23.066;2023-02-12T10:21:43;4.60;;;2.10;;
23044;SDS011;11690;51.716;23.066;2023-02-12T10:24:26;4.87;;;2.50;;
23044;SDS011;11690;51.716;23.066;2023-02-12T10:27:10;4.97;;;2.40;;
23044;SDS011;11690;51.716;23.066;2023-02-12T10:29:40;5.23;;;2.80;;
23044;SDS011;11690;51.716;23.066;2023-02-12T10:32:16;7.03;;;3.20;;
23044;SDS011;11690;51.716;23.066;2023-02-12T10:34:50;5.00;;;3.00;;
23044;SDS011;11690;51.716;23.066;2023-02-12T10:40:15;6.43;;;3.30;;
23044;SDS011;11690;51.716;23.066;2023-02-12T10:42:46;6.80;;;2.90;;
23044;SDS011;11690;51.716;23.066;2023-02-12T10:45:16;5.20;;;3.30;;
23044;SDS011;11690;51.716;23.066;2023-02-12T10:47:46;7.90;;;3.63;;
23044;SDS011;11690;51.716;23.066;2023-02-12T10:56:03;5.67;;;3.20;;
23044;SDS011;11690;51.716;23.066;2023-02-12T10:58:39;4.63;;;3.00;;
23044;SDS011;11690;51.716;23.066;2023-02-12T11:01:27;7.03;;;3.17;;
23044;SDS011;11690;51.716;23.066;2023-02-12T11:03:57;6.57;;;3.10;;
23044;SDS011;11690;51.716;23.066;2023-02-12T11:06:26;24.23;;;8.47;;
23044;SDS011;11690;51.716;23.066;2023-02-12T11:08:56;10.17;;;4.13;;
23044;SDS011;11690;51.716;23.066;2023-02-12T11:11:28;4.77;;;3.00;;
23044;SDS011;11690;51.716;23.066;2023-02-12T11:13:59;6.27;;;2.77;;
23044;SDS011;11690;51.716;23.066;2023-02-12T11:16:33;4.47;;;3.03;;
23044;SDS011;11690;51.716;23.066;2023-02-12T11:19:06;6.67;;;3.20;;
23044;SDS011;11690;51.716;23.066;2023-02-12T11:21:37;10.17;;;3.40;;
23044;SDS011;11690;51.716;23.066;2023-02-12T11:27:22;6.00;;;3.40;;
23044;SDS011;11690;51.716;23.066;2023-02-12T11:29:45;9.63;;;4.07;;
23044;SDS011;11690;51.716;23.066;2023-02-12T11:32:17;16.53;;;5.13;;
23044;SDS011;11690;51.716;23.066;2023-02-12T11:37:39;6.73;;;3.03;;
23044;SDS011;11690;51.716;23.066;2023-02-12T11:42:51;7.47;;;3.70;;
23044;SDS011;11690;51.716;23.066;2023-02-12T11:45:21;5.10;;;3.00;;
23044;SDS011;11690;51.716;23.066;2023-02-12T11:47:53;6.03;;;2.63;;
23044;SDS011;11690;51.716;23.066;2023-02-12T11:50:27;5.47;;;3.10;;
23044;SDS011;11690;51.716;23.066;2023-02-12T11:52:59;4.40;;;2.60;;
23044;SDS011;11690;51.716;23.066;2023-02-12T11:55:30;3.80;;;2.50;;
23044;SDS011;11690;51.716;23.066;2023-02-12T11:58:03;8.90;;;3.80;;
23044;SDS011;11690;51.716;23.066;2023-02-12T12:00:35;4.17;;;2.40;;
23044;SDS011;11690;51.716;23.066;2023-02-12T12:05:59;7.50;;;3.77;;
23044;SDS011;11690;51.716;23.066;2023-02-12T12:09:16;5.43;;;3.20;;
23044;SDS011;11690;51.716;23.066;2023-02-12T12:14:03;5.80;;;3.30;;
23044;SDS011;11690;51.716;23.066;2023-02-12T12:16:52;9.70;;;4.10;;
23044;SDS011;11690;51.716;23.066;2023-02-12T12:19:51;11.53;;;4.57;;
23044;SDS011;11690;51.716;23.066;2023-02-12T12:22:37;6.50;;;3.10;;
23044;SDS011;11690;51.716;23.066;2023-02-12T12:34:16;6.60;;;3.60;;
23044;SDS011;11690;51.716;23.066;2023-02-12T12:39:24;6.70;;;3.23;;
23044;SDS011;11690;51.716;23.066;2023-02-12T12:51:04;8.13;;;3.23;;
23044;SDS011;11690;51.716;23.066;2023-02-12T13:10:07;10.40;;;4.40;;
23044;SDS011;11690;51.716;23.066;2023-02-12T13:15:32;13.27;;;5.60;;
23044;SDS011;11690;51.716;23.066;2023-02-12T13:20:40;7.43;;;3.90;;
23044;SDS011;11690;51.716;23.066;2023-02-12T13:23:13;6.97;;;3.83;;
23044;SDS011;11690;51.716;23.066;2023-02-12T13:28:51;7.47;;;4.07;;
23044;SDS011;11690;51.716;23.066;2023-02-12T13:31:21;10.90;;;4.93;;
23044;SDS011;11690;51.716;23.066;2023-02-12T13:34:01;11.00;;;3.87;;
23044;SDS011;11690;51.716;23.066;2023-02-12T13:36:30;8.50;;;3.47;;
23044;SDS011;11690;51.716;23.066;2023-02-12T13:39:00;7.40;;;3.80;;
23044;SDS011;11690;51.716;23.066;2023-02-12T13:41:33;7.30;;;3.37;;
23044;SDS011;11690;51.716;23.066;2023-02-12T13:52:54;6.80;;;3.80;;
23044;SDS011;11690;51.716;23.066;2023-02-12T13:55:29;8.90;;;4.43;;
23044;SDS011;11690;51.716;23.066;2023-02-12T14:01:01;6.73;;;3.90;;
23044;SDS011;11690;51.716;23.066;2023-02-12T14:03:34;6.77;;;4.17;;
23044;SDS011;11690;51.716;23.066;2023-02-12T14:06:13;6.87;;;4.03;;
23044;SDS011;11690;51.716;23.066;2023-02-12T14:09:28;6.37;;;3.77;;
23044;SDS011;11690;51.716;23.066;2023-02-12T14:11:45;5.70;;;3.67;;
23044;SDS011;11690;51.716;23.066;2023-02-12T14:14:22;6.53;;;3.20;;
23044;SDS011;11690;51.716;23.066;2023-02-12T14:16:55;4.43;;;2.97;;
23044;SDS011;11690;51.716;23.066;2023-02-12T14:19:36;9.50;;;4.30;;
23044;SDS011;11690;51.716;23.066;2023-02-12T14:24:58;6.30;;;3.37;;
23044;SDS011;11690;51.716;23.066;2023-02-12T14:49:01;6.90;;;3.40;;
23044;SDS011;11690;51.716;23.066;2023-02-12T14:51:35;5.93;;;4.13;;
23044;SDS011;11690;51.716;23.066;2023-02-12T14:54:41;10.13;;;4.57;;
23044;SDS011;11690;51.716;23.066;2023-02-12T14:57:08;9.97;;;4.37;;
23044;SDS011;11690;51.716;23.066;2023-02-12T14:59:47;9.40;;;4.53;;
23044;SDS011;11690;51.716;23.066;2023-02-12T15:02:19;9.13;;;4.53;;
23044;SDS011;11690;51.716;23.066;2023-02-12T15:04:50;8.43;;;4.90;;
23044;SDS011;11690;51.716;23.066;2023-02-12T15:07:22;9.10;;;4.80;;
23044;SDS011;11690;51.716;23.066;2023-02-12T15:09:57;11.87;;;4.63;;
23044;SDS011;11690;51.716;23.066;2023-02-12T15:12:36;16.57;;;10.70;;
23044;SDS011;11690;51.716;23.066;2023-02-12T15:18:02;13.00;;;7.30;;
23044;SDS011;11690;51.716;23.066;2023-02-12T15:20:37;9.87;;;5.13;;
23044;SDS011;11690;51.716;23.066;2023-02-12T15:26:11;8.47;;;4.33;;
23044;SDS011;11690;51.716;23.066;2023-02-12T15:28:40;11.07;;;4.40;;
23044;SDS011;11690;51.716;23.066;2023-02-12T15:31:08;9.80;;;4.80;;
23044;SDS011;11690;51.716;23.066;2023-02-12T15:33:38;11.47;;;5.33;;
23044;SDS011;11690;51.716;23.066;2023-02-12T15:36:08;13.10;;;5.77;;
23044;SDS011;11690;51.716;23.066;2023-02-12T15:38:37;12.87;;;5.63;;
23044;SDS011;11690;51.716;23.066;2023-02-12T15:41:22;10.10;;;5.07;;
23044;SDS011;11690;51.716;23.066;2023-02-12T15:44:21;10.03;;;4.60;;
23044;SDS011;11690;51.716;23.066;2023-02-12T15:49:30;13.53;;;7.20;;
23044;SDS011;11690;51.716;23.066;2023-02-12T15:52:02;15.13;;;7.30;;
23044;SDS011;11690;51.716;23.066;2023-02-12T15:54:46;12.03;;;5.20;;
23044;SDS011;11690;51.716;23.066;2023-02-12T15:57:18;14.93;;;5.80;;
23044;SDS011;11690;51.716;23.066;2023-02-12T16:00:01;10.97;;;4.30;;
23044;SDS011;11690;51.716;23.066;2023-02-12T16:02:41;16.57;;;5.47;;
23044;SDS011;11690;51.716;23.066;2023-02-12T16:05:09;15.63;;;6.10;;
23044;SDS011;11690;51.716;23.066;2023-02-12T16:07:41;15.57;;;6.67;;
23044;SDS011;11690;51.716;23.066;2023-02-12T16:10:09;13.13;;;5.60;;
23044;SDS011;11690;51.716;23.066;2023-02-12T16:12:40;16.30;;;8.10;;
23044;SDS011;11690;51.716;23.066;2023-02-12T16:17:57;13.33;;;5.50;;
23044;SDS011;11690;51.716;23.066;2023-02-12T16:20:26;8.00;;;5.10;;
23044;SDS011;11690;51.716;23.066;2023-02-12T16:22:54;13.33;;;5.70;;
23044;SDS011;11690;51.716;23.066;2023-02-12T16:25:24;12.30;;;5.67;;
23044;SDS011;11690;51.716;23.066;2023-02-12T16:28:01;14.10;;;6.50;;
23044;SDS011;11690;51.716;23.066;2023-02-12T16:30:33;17.97;;;7.17;;
23044;SDS011;11690;51.716;23.066;2023-02-12T16:33:05;24.50;;;8.83;;
23044;SDS011;11690;51.716;23.066;2023-02-12T16:36:00;43.37;;;17.97;;
23044;SDS011;11690;51.716;23.066;2023-02-12T16:38:38;36.87;;;18.87;;
23044;SDS011;11690;51.716;23.066;2023-02-12T16:43:47;16.43;;;8.90;;
23044;SDS011;11690;51.716;23.066;2023-02-12T16:46:17;22.40;;;8.53;;
23044;SDS011;11690;51.716;23.066;2023-02-12T16:48:48;31.43;;;10.67;;
23044;SDS011;11690;51.716;23.066;2023-02-12T16:53:53;19.47;;;8.47;;
23044;SDS011;11690;51.716;23.066;2023-02-12T16:56:24;22.27;;;9.53;;
23044;SDS011;11690;51.716;23.066;2023-02-12T16:58:54;19.50;;;9.17;;
23044;SDS011;11690;51.716;23.066;2023-02-12T17:01:27;24.87;;;11.50;;
23044;SDS011;11690;51.716;23.066;2023-02-12T17:03:57;26.50;;;12.53;;
23044;SDS011;11690;51.716;23.066;2023-02-12T17:06:29;24.17;;;11.13;;
23044;SDS011;11690;51.716;23.066;2023-02-12T17:08:57;25.60;;;10.30;;
23044;SDS011;11690;51.716;23.066;2023-02-12T17:11:25;29.47;;;10.80;;
23044;SDS011;11690;51.716;23.066;2023-02-12T17:13:53;31.30;;;12.07;;
23044;SDS011;11690;51.716;23.066;2023-02-12T17:16:21;31.73;;;12.53;;
23044;SDS011;11690;51.716;23.066;2023-02-12T17:18:58;22.87;;;10.07;;
23044;SDS011;11690;51.716;23.066;2023-02-12T17:21:27;25.13;;;10.70;;
23044;SDS011;11690;51.716;23.066;2023-02-12T17:24:14;23.30;;;10.30;;
23044;SDS011;11690;51.716;23.066;2023-02-12T17:26:45;33.43;;;16.70;;
23044;SDS011;11690;51.716;23.066;2023-02-12T17:29:13;46.53;;;21.10;;
23044;SDS011;11690;51.716;23.066;2023-02-12T17:31:40;77.63;;;34.57;;
23044;SDS011;11690;51.716;23.066;2023-02-12T17:34:07;109.10;;;42.90;;
23044;SDS011;11690;51.716;23.066;2023-02-12T17:36:34;111.93;;;42.93;;
23044;SDS011;11690;51.716;23.066;2023-02-12T17:39:02;62.07;;;24.50;;
23044;SDS011;11690;51.716;23.066;2023-02-12T17:41:31;44.20;;;17.83;;
23044;SDS011;11690;51.716;23.066;2023-02-12T17:43:59;39.90;;;15.77;;
23044;SDS011;11690;51.716;23.066;2023-02-12T17:46:26;28.60;;;14.27;;
23044;SDS011;11690;51.716;23.066;2023-02-12T17:48:55;19.57;;;9.77;;
23044;SDS011;11690;51.716;23.066;2023-02-12T17:51:23;16.03;;;8.53;;
23044;SDS011;11690;51.716;23.066;2023-02-12T17:53:51;28.03;;;13.77;;
23044;SDS011;11690;51.716;23.066;2023-02-12T17:56:19;29.00;;;19.73;;
23044;SDS011;11690;51.716;23.066;2023-02-12T17:58:48;12.77;;;9.30;;
23044;SDS011;11690;51.716;23.066;2023-02-12T18:01:16;16.30;;;8.50;;
23044;SDS011;11690;51.716;23.066;2023-02-12T18:03:45;12.80;;;7.27;;
23044;SDS011;11690;51.716;23.066;2023-02-12T18:06:13;14.90;;;8.33;;
23044;SDS011;11690;51.716;23.066;2023-02-12T18:08:48;14.07;;;8.33;;